createdAt,value
2022-08-08T00:00:54.390Z,100917.78
2022-08-08T00:02:52.734Z,100919.94
2022-08-08T00:05:43.925Z,100916.50
2022-08-08T00:08:34.967Z,100902.66
2022-08-08T00:11:28.004Z,100917.63
2022-08-08T00:14:59.291Z,100917.53
2022-08-08T00:18:01.973Z,100915.63
2022-08-08T00:20:36.052Z,100911.16
2022-08-08T00:23:08.417Z,100917.09
2022-08-08T00:25:51.304Z,100925.19
2022-08-08T00:28:35.755Z,100925.78
2022-08-08T00:32:14.967Z,100921.75
2022-08-08T00:34:51.101Z,100917.09
2022-08-08T00:37:47.667Z,100917.09
2022-08-08T00:41:12.599Z,100918.81
2022-08-08T00:43:45.885Z,100911.31
2022-08-08T00:46:57.449Z,100910.06
2022-08-08T00:49:58.476Z,100916.63
2022-08-08T00:52:48.489Z,100906.25
2022-08-08T00:55:53.737Z,100916.63
2022-08-08T00:58:54.713Z,100911.78
2022-08-08T01:01:38.198Z,100910.91
2022-08-08T01:05:01.214Z,100903.72
2022-08-08T01:07:55.997Z,100906.25
2022-08-08T01:10:38.146Z,100909.19
2022-08-08T01:13:43.949Z,100916.78
2022-08-08T01:16:16.905Z,100917.91
2022-08-08T01:18:52.750Z,100922.63
2022-08-08T01:22:07.536Z,100918.38
2022-08-08T01:24:44.187Z,100916.50
2022-08-08T01:28:00.080Z,100919.50
2022-08-08T01:32:03.038Z,100919.06
2022-08-08T01:34:20.316Z,100925.00
2022-08-08T01:37:13.771Z,100928.84
2022-08-08T01:40:14.682Z,100920.84
2022-08-08T01:43:02.011Z,100918.94
2022-08-08T01:45:41.449Z,100923.00
2022-08-08T01:48:31.493Z,100929.09
2022-08-08T01:51:32.369Z,100929.59
2022-08-08T01:55:25.560Z,100928.31
2022-08-08T01:58:12.087Z,100935.72
2022-08-08T02:00:50.264Z,100935.97
2022-08-08T02:04:01.730Z,100934.94
2022-08-08T02:06:45.524Z,100940.88
2022-08-08T02:10:02.390Z,100945.31
2022-08-08T02:12:31.770Z,100949.97
2022-08-08T02:15:16.651Z,100952.09
2022-08-08T02:18:03.318Z,100949.97
2022-08-08T02:21:18.155Z,100949.97
2022-08-08T02:24:49.235Z,100948.94
2022-08-08T02:27:24.863Z,100944.28
2022-08-08T02:30:20.766Z,100951.03
2022-08-08T02:33:01.555Z,100949.78
2022-08-08T02:36:04.106Z,100937.69
2022-08-08T02:38:29.139Z,100945.47
2022-08-08T02:41:17.788Z,100953.94
2022-08-08T02:44:43.014Z,100954.34
2022-08-08T02:47:28.376Z,100953.91
2022-08-08T02:50:17.685Z,100955.16
2022-08-08T02:53:05.437Z,100962.53
2022-08-08T02:55:42.575Z,100966.56
2022-08-08T02:58:48.583Z,100968.66
2022-08-08T03:01:32.524Z,100982.19
2022-08-08T03:05:05.046Z,100973.25
2022-08-08T03:07:41.130Z,100970.63
2022-08-08T03:10:32.763Z,100976.75
2022-08-08T03:16:00.048Z,100974.78
2022-08-08T03:17:00.441Z,100981.09
2022-08-08T03:20:15.625Z,100985.88
2022-08-08T03:22:47.766Z,100983.91
2022-08-08T03:25:18.393Z,100988.38
2022-08-08T03:27:59.535Z,100992.84
2022-08-08T03:30:32.334Z,101004.22
2022-08-08T03:33:55.134Z,101014.50
2022-08-08T03:36:27.476Z,101017.28
2022-08-08T03:39:14.177Z,101014.66
2022-08-08T03:42:11.561Z,101028.13
2022-08-08T03:44:38.958Z,101038.44
2022-08-08T03:47:20.234Z,101039.03
2022-08-08T03:49:59.719Z,101050.31
2022-08-08T03:52:35.553Z,101056.78
2022-08-08T03:55:56.476Z,101056.66
2022-08-08T03:58:31.806Z,101067.00
2022-08-08T04:01:20.638Z,101055.44
2022-08-08T04:03:57.933Z,101062.09
2022-08-08T04:06:30.864Z,101065.06
2022-08-08T04:09:10.227Z,101062.09
2022-08-08T04:11:48.040Z,101054.84
2022-08-08T04:14:33.880Z,101056.75
2022-08-08T04:17:04.438Z,101067.59
2022-08-08T04:19:36.835Z,101070.69
2022-08-08T04:22:05.256Z,101074.88
2022-08-08T04:24:40.199Z,101084.88
2022-08-08T04:27:42.806Z,101089.13
2022-08-08T04:30:17.462Z,101085.19
2022-08-08T04:32:50.437Z,101083.22
2022-08-08T04:35:22.470Z,101088.69
2022-08-08T04:37:52.214Z,101087.31
2022-08-08T04:40:25.340Z,101082.84
2022-08-08T04:43:00.858Z,101094.66
2022-08-08T04:45:51.490Z,101087.22
2022-08-08T04:48:21.741Z,101101.31
2022-08-08T04:50:51.098Z,101091.34
2022-08-08T04:54:36.323Z,101097.28
2022-08-08T04:56:14.170Z,101089.69
2022-08-08T04:58:41.954Z,101093.13
2022-08-08T05:01:11.260Z,101102.25
2022-08-08T05:04:11.161Z,101100.69
2022-08-08T05:06:39.497Z,101096.28
2022-08-08T05:09:09.705Z,101099.06
2022-08-08T05:11:41.733Z,101100.28
2022-08-08T05:14:12.897Z,101094.72
2022-08-08T05:16:51.733Z,101095.34
2022-08-08T05:20:12.849Z,101083.75
2022-08-08T05:22:18.249Z,101088.25
2022-08-08T05:24:49.621Z,101088.72
2022-08-08T05:27:21.682Z,101099.16
2022-08-08T05:29:52.282Z,101093.84
2022-08-08T05:32:27.614Z,101095.25
2022-08-08T05:35:04.804Z,101093.19
2022-08-08T05:37:52.107Z,101102.56
2022-08-08T05:40:34.076Z,101112.28
2022-08-08T05:43:17.204Z,101102.81
2022-08-08T05:46:08.041Z,101098.91
2022-08-08T05:48:41.722Z,101097.50
2022-08-08T05:51:14.597Z,101102.34
2022-08-08T05:53:56.264Z,101100.97
2022-08-08T05:56:42.220Z,101104.53
2022-08-08T06:00:01.147Z,101108.78
2022-08-08T06:02:40.827Z,101109.53
2022-08-08T06:05:34.574Z,101114.88
2022-08-08T06:08:10.412Z,101108.31
2022-08-08T06:10:59.644Z,101106.63
2022-08-08T06:13:35.555Z,101117.31
2022-08-08T06:16:19.131Z,101113.44
2022-08-08T06:19:07.364Z,101115.84
2022-08-08T06:21:48.740Z,101112.19
2022-08-08T06:24:35.954Z,101114.91
2022-08-08T06:27:09.295Z,101105.91
2022-08-08T06:29:59.734Z,101110.06
2022-08-08T06:32:32.160Z,101108.59
2022-08-08T06:36:07.959Z,101117.81
2022-08-08T06:38:14.131Z,101114.88
2022-08-08T06:40:48.748Z,101119.94
2022-08-08T06:43:33.744Z,101116.78
2022-08-08T06:46:13.948Z,101116.69
2022-08-08T06:48:46.428Z,101111.25
2022-08-08T06:51:16.969Z,101110.28
2022-08-08T06:53:51.182Z,101105.66
2022-08-08T06:56:32.858Z,101105.66
2022-08-08T06:59:12.220Z,101109.53
2022-08-08T07:02:24.398Z,101114.25
2022-08-08T07:05:12.043Z,101118.44
2022-08-08T07:07:57.866Z,101110.78
2022-08-08T07:10:34.457Z,101117.28
2022-08-08T07:13:08.798Z,101119.91
2022-08-08T07:16:04.422Z,101118.78
2022-08-08T07:18:57.707Z,101111.97
2022-08-08T07:21:36.776Z,101109.06
2022-08-08T07:24:12.599Z,101103.94
2022-08-08T07:26:52.916Z,101102.19
2022-08-08T07:29:59.677Z,101112.41
2022-08-08T07:32:15.615Z,101107.78
2022-08-08T07:35:00.170Z,101108.56
2022-08-08T07:37:56.456Z,101112.44
2022-08-08T07:40:40.187Z,101115.91
2022-08-08T07:43:12.549Z,101107.38
2022-08-08T07:46:05.034Z,101109.53
2022-08-08T07:48:34.942Z,101109.00
2022-08-08T07:51:04.595Z,101107.38
2022-08-08T07:54:00.766Z,101103.22
2022-08-08T07:56:36.065Z,101103.59
2022-08-08T07:59:11.009Z,101101.72
2022-08-08T08:02:32.970Z,101101.81
2022-08-08T08:04:39.898Z,101108.09
2022-08-08T08:07:11.912Z,101108.59
2022-08-08T08:09:42.128Z,101115.94
2022-08-08T08:12:26.451Z,101110.03
2022-08-08T08:15:05.387Z,101117.59
2022-08-08T08:17:48.610Z,101116.34
2022-08-08T08:20:20.929Z,101109.03
2022-08-08T08:22:50.699Z,101110.25
2022-08-08T08:25:19.425Z,101113.19
2022-08-08T08:28:09.392Z,101109.59
2022-08-08T08:30:39.237Z,101110.56
2022-08-08T08:33:10.846Z,101114.41
2022-08-08T08:36:19.211Z,101114.91
2022-08-08T08:38:28.846Z,101109.31
2022-08-08T08:41:06.221Z,101114.22
2022-08-08T08:43:46.750Z,101100.59
2022-08-08T08:46:17.766Z,101106.13
2022-08-08T08:48:49.175Z,101112.28
2022-08-08T08:51:19.559Z,101117.19
2022-08-08T08:53:56.535Z,101103.41
2022-08-08T08:56:31.975Z,101110.63
2022-08-08T08:59:15.770Z,101109.88
2022-08-08T09:01:52.186Z,101109.78
2022-08-08T09:04:31.164Z,101115.09
2022-08-08T09:07:02.893Z,101118.88
2022-08-08T09:09:48.100Z,101114.91
2022-08-08T09:12:27.266Z,101107.81
2022-08-08T09:14:58.910Z,101116.13
2022-08-08T09:17:52.236Z,101109.91
2022-08-08T09:22:02.129Z,101105.63
2022-08-08T09:23:17.843Z,101104.53
2022-08-08T09:26:04.162Z,101099.53
2022-08-08T09:28:39.523Z,101104.97
2022-08-08T09:31:55.924Z,101111.66
2022-08-08T09:34:32.471Z,101105.59
2022-08-08T09:37:39.675Z,101107.41
2022-08-08T09:40:10.423Z,101110.25
2022-08-08T09:42:44.277Z,101104.09
2022-08-08T09:46:02.268Z,101102.22
2022-08-08T09:48:17.738Z,101099.56
2022-08-08T09:50:51.378Z,101100.13
2022-08-08T09:53:53.086Z,101084.22
2022-08-08T09:56:24.786Z,101094.25
2022-08-08T09:59:19.970Z,101084.13
2022-08-08T10:01:59.753Z,101093.06
2022-08-08T10:04:41.899Z,101099.13
2022-08-08T10:07:17.341Z,101095.03
2022-08-08T10:10:00.322Z,101090.59
2022-08-08T10:12:54.162Z,101094.97
2022-08-08T10:15:27.404Z,101096.00
2022-08-08T10:18:10.096Z,101084.09
2022-08-08T10:20:57.386Z,101084.41
2022-08-08T10:23:49.512Z,101077.28
2022-08-08T10:26:40.540Z,101076.63
2022-08-08T10:29:21.150Z,101070.66
2022-08-08T10:32:14.981Z,101076.88
2022-08-08T10:34:51.013Z,101071.72
2022-08-08T10:37:34.728Z,101072.88
2022-08-08T10:40:16.941Z,101080.16
2022-08-08T10:42:45.409Z,101083.59
2022-08-08T10:45:16.071Z,101077.28
2022-08-08T10:47:48.530Z,101077.50
2022-08-08T10:50:31.235Z,101072.72
2022-08-08T10:53:17.047Z,101076.19
2022-08-08T10:55:46.736Z,101068.31
2022-08-08T10:58:16.556Z,101065.00
2022-08-08T11:00:53.281Z,101069.19
2022-08-08T11:04:01.161Z,101068.84
2022-08-08T11:06:31.889Z,101061.66
2022-08-08T11:09:09.681Z,101067.22
2022-08-08T11:12:06.235Z,101061.38
2022-08-08T11:14:34.621Z,101064.91
2022-08-08T11:17:04.101Z,101071.38
2022-08-08T11:19:32.633Z,101068.88
2022-08-08T11:22:01.222Z,101065.22
2022-08-08T11:24:33.658Z,101064.22
2022-08-08T11:27:19.713Z,101066.72
2022-08-08T11:30:19.529Z,101064.88
2022-08-08T11:32:42.162Z,101066.53
2022-08-08T11:35:27.314Z,101067.19
2022-08-08T11:38:35.762Z,101070.03
2022-08-08T11:40:52.771Z,101063.16
2022-08-08T11:43:23.768Z,101058.47
2022-08-08T11:46:17.545Z,101056.13
2022-08-08T11:48:40.430Z,101064.13
2022-08-08T11:51:37.902Z,101062.19
2022-08-08T11:54:01.274Z,101065.31
2022-08-08T11:56:34.859Z,101069.47
2022-08-08T11:59:08.009Z,101064.34
2022-08-08T12:01:37.786Z,101059.53
2022-08-08T12:04:06.932Z,101059.44
2022-08-08T12:06:35.579Z,101058.31
2022-08-08T12:09:17.059Z,101059.66
2022-08-08T12:11:49.408Z,101056.53
2022-08-08T12:14:24.214Z,101057.56
2022-08-08T12:16:57.439Z,101052.03
2022-08-08T12:19:37.458Z,101062.19
2022-08-08T12:22:20.855Z,101053.09
2022-08-08T12:24:53.727Z,101053.28
2022-08-08T12:27:45.095Z,101053.03
2022-08-08T12:30:33.121Z,101057.00
2022-08-08T12:33:07.884Z,101061.06
2022-08-08T12:35:40.094Z,101048.88
2022-08-08T12:38:09.233Z,101042.31
2022-08-08T12:40:57.268Z,101052.50
2022-08-08T12:43:46.475Z,101053.16
2022-08-08T12:46:24.881Z,101047.75
2022-08-08T12:49:22.158Z,101041.03
2022-08-08T12:51:53.655Z,101034.72
2022-08-08T12:54:35.986Z,101038.13
2022-08-08T12:57:24.423Z,101031.72
2022-08-08T13:00:04.946Z,101039.13
2022-08-08T13:02:37.965Z,101039.16
2022-08-08T13:05:26.583Z,101030.31
2022-08-08T13:08:15.821Z,101025.59
2022-08-08T13:10:56.664Z,101037.72
2022-08-08T13:13:37.218Z,101037.84
2022-08-08T13:16:26.496Z,101040.28
2022-08-08T13:19:06.753Z,101034.03
2022-08-08T13:21:52.660Z,101041.41
2022-08-08T13:24:41.927Z,101039.22
2022-08-08T13:27:15.363Z,101035.78
2022-08-08T13:30:00.233Z,101033.13
2022-08-08T13:32:30.550Z,101030.38
2022-08-08T13:35:00.111Z,101031.00
2022-08-08T13:38:05.197Z,101015.31
2022-08-08T13:40:27.559Z,101020.97
2022-08-08T13:42:56.018Z,101023.06
2022-08-08T13:45:24.846Z,101018.31
2022-08-08T13:47:58.052Z,101020.25
2022-08-08T13:50:35.441Z,101027.84
2022-08-08T13:53:22.681Z,101016.84
2022-08-08T13:56:01.351Z,101021.38
2022-08-08T13:58:30.263Z,101023.94
2022-08-08T14:00:58.038Z,101027.34
2022-08-08T14:03:53.564Z,101031.06
2022-08-08T14:06:32.138Z,101029.47
2022-08-08T14:09:25.364Z,101028.09
2022-08-08T14:11:50.531Z,101021.53
2022-08-08T14:14:21.140Z,101020.75
2022-08-08T14:16:53.476Z,101009.03
2022-08-08T14:19:57.008Z,101007.09
2022-08-08T14:22:26.585Z,101010.00
2022-08-08T14:24:54.365Z,101011.94
2022-08-08T14:27:30.019Z,100999.13
2022-08-08T14:30:18.077Z,101004.41
2022-08-08T14:32:52.844Z,101003.91
2022-08-08T14:35:24.858Z,101004.69
2022-08-08T14:38:33.315Z,101014.09
2022-08-08T14:40:59.557Z,101004.78
2022-08-08T14:44:02.823Z,101005.84
2022-08-08T14:46:30.845Z,101004.50
2022-08-08T14:49:02.425Z,101010.47
2022-08-08T14:51:51.879Z,101001.13
2022-08-08T14:54:29.259Z,100998.84
2022-08-08T14:56:57.958Z,100999.78
2022-08-08T14:59:43.864Z,101005.97
2022-08-08T15:02:25.813Z,100997.28
2022-08-08T15:05:10.700Z,101000.78
2022-08-08T15:07:40.693Z,101002.75
2022-08-08T15:10:12.584Z,100999.63
2022-08-08T15:12:41.223Z,101000.69
2022-08-08T15:15:10.277Z,101008.00
2022-08-08T15:17:39.953Z,101003.91
2022-08-08T15:20:14.222Z,101006.59
2022-08-08T15:22:44.602Z,100999.81
2022-08-08T15:25:17.785Z,101000.13
2022-08-08T15:28:04.978Z,100999.28
2022-08-08T15:30:45.758Z,100998.25
2022-08-08T15:33:20.880Z,101004.06
2022-08-08T15:36:03.837Z,101003.69
2022-08-08T15:38:31.649Z,100996.06
2022-08-08T15:40:59.729Z,101002.25
2022-08-08T15:43:36.083Z,101004.44
2022-08-08T15:46:04.928Z,101011.06
2022-08-08T15:48:33.002Z,101004.50
2022-08-08T15:51:07.093Z,101005.91
2022-08-08T15:53:49.168Z,101011.84
2022-08-08T15:56:19.866Z,101006.38
2022-08-08T15:58:50.244Z,101004.13
2022-08-08T16:01:18.496Z,101014.44
2022-08-08T16:03:51.918Z,101011.59
2022-08-08T16:06:27.799Z,101017.97
2022-08-08T16:13:01.003Z,101017.19
2022-08-08T16:13:10.006Z,101024.25
2022-08-08T16:14:36.257Z,101026.00
2022-08-08T16:17:05.886Z,101028.97
2022-08-08T16:19:56.901Z,101023.56
2022-08-08T16:22:29.922Z,101025.28
2022-08-08T16:24:59.015Z,101041.13
2022-08-08T16:27:36.898Z,101042.41
2022-08-08T16:30:08.416Z,101036.91
2022-08-08T16:32:42.600Z,101048.47
2022-08-08T16:35:10.554Z,101052.66
2022-08-08T16:37:42.895Z,101050.97
2022-08-08T16:40:19.615Z,101049.19
2022-08-08T16:42:54.124Z,101049.94
2022-08-08T16:46:36.794Z,101056.66
2022-08-08T16:48:10.007Z,101058.59
2022-08-08T16:50:41.306Z,101056.25
2022-08-08T16:55:01.829Z,101058.47
2022-08-08T16:55:58.383Z,101055.84
2022-08-08T16:58:32.659Z,101066.75
2022-08-08T17:01:12.961Z,101065.13
2022-08-08T17:03:58.732Z,101064.50
2022-08-08T17:06:36.601Z,101066.25
2022-08-08T17:09:06.074Z,101058.47
2022-08-08T17:11:39.282Z,101064.56
2022-08-08T17:14:19.488Z,101070.50
2022-08-08T17:16:57.391Z,101072.53
2022-08-08T17:19:27.649Z,101070.38
2022-08-08T17:21:57.637Z,101075.81
2022-08-08T17:24:30.438Z,101075.00
2022-08-08T17:26:59.505Z,101079.00
2022-08-08T17:29:28.192Z,101081.00
2022-08-08T17:32:02.728Z,101077.09
2022-08-08T17:34:53.069Z,101077.41
2022-08-08T17:37:21.396Z,101087.03
2022-08-08T17:40:06.027Z,101083.72
2022-08-08T17:42:37.907Z,101079.81
2022-08-08T17:45:07.639Z,101083.75
2022-08-08T17:47:51.044Z,101082.38
2022-08-08T17:50:19.056Z,101090.78
2022-08-08T17:52:47.522Z,101093.31
2022-08-08T17:56:03.601Z,101091.66
2022-08-08T17:58:03.398Z,101088.59
2022-08-08T18:00:32.000Z,101089.44
2022-08-08T18:03:09.170Z,101086.91
2022-08-08T18:05:49.899Z,101084.94
2022-08-08T18:08:25.258Z,101091.09
2022-08-08T18:11:16.142Z,101086.63
2022-08-08T18:13:45.869Z,101084.69
2022-08-08T18:16:20.623Z,101085.22
2022-08-08T18:18:56.100Z,101096.09
2022-08-08T18:22:00.301Z,101086.06
2022-08-08T18:24:19.285Z,101088.00
2022-08-08T18:26:54.442Z,101085.69
2022-08-08T18:29:35.458Z,101082.56
2022-08-08T18:32:07.922Z,101085.34
2022-08-08T18:34:36.610Z,101091.72
2022-08-08T18:37:06.512Z,101090.28
2022-08-08T18:39:42.032Z,101098.13
2022-08-08T18:42:14.402Z,101100.88
2022-08-08T18:44:53.051Z,101095.00
2022-08-08T18:47:25.825Z,101089.63
2022-08-08T18:49:58.249Z,101089.06
2022-08-08T18:52:33.557Z,101089.03
2022-08-08T18:55:10.590Z,101094.31
2022-08-08T18:57:43.433Z,101092.91
2022-08-08T19:00:21.268Z,101087.84
2022-08-08T19:02:55.459Z,101091.19
2022-08-08T19:05:30.504Z,101095.94
2022-08-08T19:08:25.296Z,101090.59
2022-08-08T19:11:01.467Z,101088.56
2022-08-08T19:13:52.517Z,101093.03
2022-08-08T19:16:20.201Z,101089.41
2022-08-08T19:19:00.537Z,101085.72
2022-08-08T19:21:33.880Z,101086.22
2022-08-08T19:24:42.159Z,101092.59
2022-08-08T19:27:05.916Z,101091.78
2022-08-08T19:29:40.712Z,101093.16
2022-08-08T19:32:13.060Z,101087.72
2022-08-08T19:34:51.565Z,101096.00
2022-08-08T19:37:42.218Z,101087.63
2022-08-08T19:40:14.602Z,101090.69
2022-08-08T19:42:58.863Z,101080.25
2022-08-08T19:45:58.273Z,101090.97
2022-08-08T19:48:30.575Z,101088.97
2022-08-08T19:51:01.369Z,101085.69
2022-08-08T19:53:53.213Z,101082.47
2022-08-08T19:56:25.937Z,101087.06
2022-08-08T19:59:12.360Z,101087.69
2022-08-08T20:02:02.306Z,101086.72
2022-08-08T20:04:35.157Z,101090.97
2022-08-08T20:08:26.721Z,101079.72
2022-08-08T20:09:55.839Z,101081.03
2022-08-08T20:12:32.634Z,101079.22
2022-08-08T20:15:16.793Z,101083.06
2022-08-08T20:17:47.698Z,101092.44
2022-08-08T20:20:20.645Z,101092.38
2022-08-08T20:22:54.207Z,101091.03
2022-08-08T20:25:31.324Z,101087.88
2022-08-08T20:28:07.194Z,101091.78
2022-08-08T20:30:56.365Z,101094.28
2022-08-08T20:33:27.907Z,101088.84
2022-08-08T20:36:17.217Z,101088.44
2022-08-08T20:38:51.089Z,101080.88
2022-08-08T20:41:20.368Z,101080.72
2022-08-08T20:43:49.559Z,101081.34
2022-08-08T20:46:25.691Z,101083.44
2022-08-08T20:48:58.524Z,101084.97
2022-08-08T20:51:32.404Z,101085.97
2022-08-08T20:54:13.794Z,101093.53
2022-08-08T20:57:11.756Z,101088.88
2022-08-08T20:59:41.271Z,101089.63
2022-08-08T21:02:12.841Z,101096.84
2022-08-08T21:04:50.002Z,101099.13
2022-08-08T21:07:47.046Z,101096.81
2022-08-08T21:10:12.606Z,101095.06
2022-08-08T21:12:46.046Z,101095.56
2022-08-08T21:16:03.884Z,101097.47
2022-08-08T21:18:09.096Z,101094.38
2022-08-08T21:20:42.518Z,101085.66
2022-08-08T21:23:18.425Z,101082.94
2022-08-08T21:25:54.760Z,101091.44
2022-08-08T21:28:35.738Z,101090.34
2022-08-08T21:31:22.157Z,101098.16
2022-08-08T21:33:56.267Z,101103.72
2022-08-08T21:36:29.427Z,101103.72
2022-08-08T21:38:58.188Z,101111.69
2022-08-08T21:41:38.212Z,101097.00
2022-08-08T21:44:15.254Z,101103.53
2022-08-08T21:48:05.108Z,101108.84
2022-08-08T21:49:36.358Z,101096.88
2022-08-08T21:54:30.894Z,101099.78
2022-08-08T21:55:03.052Z,101093.13
2022-08-08T21:57:41.872Z,101091.19
2022-08-08T22:00:14.111Z,101097.44
2022-08-08T22:02:44.333Z,101101.38
2022-08-08T22:05:14.629Z,101095.28
2022-08-08T22:07:48.451Z,101090.97
2022-08-08T22:10:28.897Z,101087.03
2022-08-08T22:13:18.805Z,101087.72
2022-08-08T22:15:58.828Z,101084.47
2022-08-08T22:18:30.257Z,101089.09
2022-08-08T22:21:14.330Z,101092.22
2022-08-08T22:23:50.254Z,101094.97
2022-08-08T22:26:28.784Z,101083.44
2022-08-08T22:29:13.942Z,101082.06
2022-08-08T22:31:58.407Z,101085.38
2022-08-08T22:34:39.509Z,101086.44
2022-08-08T22:37:14.758Z,101077.47
2022-08-08T22:40:01.011Z,101074.22
2022-08-08T22:42:32.012Z,101080.81
2022-08-08T22:45:13.593Z,101072.84
2022-08-08T22:47:48.957Z,101080.69
2022-08-08T22:50:26.018Z,101078.38
2022-08-08T22:53:00.023Z,101072.84
2022-08-08T22:55:57.600Z,101089.50
2022-08-08T22:58:32.705Z,101078.38
2022-08-08T23:01:16.717Z,101083.69
2022-08-08T23:04:03.854Z,101075.88
2022-08-08T23:06:34.097Z,101075.44
2022-08-08T23:09:09.633Z,101068.94
2022-08-08T23:12:27.459Z,101067.25
2022-08-08T23:14:27.536Z,101074.00
2022-08-08T23:16:59.815Z,101074.38
2022-08-08T23:19:31.079Z,101077.16
2022-08-08T23:22:04.522Z,101065.22
2022-08-08T23:24:41.712Z,101073.16
2022-08-08T23:27:38.000Z,101068.25
2022-08-08T23:30:01.237Z,101068.13
2022-08-08T23:32:30.622Z,101064.38
2022-08-08T23:35:00.967Z,101070.03
2022-08-08T23:38:01.938Z,101066.56
2022-08-08T23:40:22.085Z,101061.88
2022-08-08T23:42:51.329Z,101061.34
2022-08-08T23:49:00.081Z,101069.56
2022-08-08T23:49:02.532Z,101063.31
2022-08-08T23:50:58.727Z,101067.63
2022-08-08T23:53:55.668Z,101068.97
2022-08-08T23:56:31.936Z,101064.41
2022-08-08T23:59:01.058Z,101072.94
